createdAt,value
2023-02-03T00:02:01.961Z,2.70
2023-02-03T00:04:29.327Z,2.38
2023-02-03T00:06:56.930Z,2.40
2023-02-03T00:09:26.278Z,2.38
2023-02-03T00:11:54.397Z,2.70
2023-02-03T00:14:21.927Z,2.70
2023-02-03T00:16:49.385Z,2.30
2023-02-03T00:19:17.735Z,2.40
2023-02-03T00:21:45.294Z,2.28
2023-02-03T00:24:12.689Z,2.25
2023-02-03T00:26:43.685Z,2.50
2023-02-03T00:29:11.469Z,2.20
2023-02-03T00:31:38.898Z,2.80
2023-02-03T00:34:06.489Z,2.00
2023-02-03T00:36:33.786Z,2.40
2023-02-03T00:39:01.549Z,2.53
2023-02-03T00:41:30.654Z,2.53
2023-02-03T00:43:58.021Z,2.15
2023-02-03T00:46:25.360Z,2.15
2023-02-03T00:48:52.670Z,2.38
2023-02-03T00:51:19.983Z,2.22
2023-02-03T00:53:47.910Z,2.72
2023-02-03T00:56:15.339Z,2.45
2023-02-03T00:58:42.711Z,1.92
2023-02-03T01:01:10.723Z,2.10
2023-02-03T01:03:38.095Z,2.58
2023-02-03T01:06:09.384Z,2.70
2023-02-03T01:08:36.694Z,2.47
2023-02-03T01:11:11.488Z,2.03
2023-02-03T01:13:38.798Z,2.17
2023-02-03T01:16:13.535Z,2.75
2023-02-03T01:18:41.019Z,2.33
2023-02-03T01:21:12.775Z,2.15
2023-02-03T01:23:40.261Z,1.77
2023-02-03T01:26:08.867Z,2.20
2023-02-03T01:28:36.485Z,1.85
2023-02-03T01:31:24.321Z,2.10
2023-02-03T01:33:54.150Z,2.47
2023-02-03T01:36:22.395Z,2.67
2023-02-03T01:38:49.730Z,2.40
2023-02-03T01:41:21.424Z,2.47
2023-02-03T01:43:50.538Z,1.83
2023-02-03T01:46:27.013Z,2.40
2023-02-03T01:48:56.458Z,2.15
2023-02-03T01:51:24.484Z,2.15
2023-02-03T01:53:54.731Z,2.17
2023-02-03T01:56:22.587Z,2.13
2023-02-03T01:58:50.501Z,1.95
2023-02-03T02:01:19.726Z,2.30
2023-02-03T02:03:51.299Z,2.10
2023-02-03T02:06:19.592Z,2.20
2023-02-03T02:08:49.078Z,1.85
2023-02-03T02:11:18.661Z,1.77
2023-02-03T02:13:46.670Z,1.85
2023-02-03T02:16:32.552Z,1.73
2023-02-03T02:19:15.425Z,2.10
2023-02-03T02:21:48.716Z,2.00
2023-02-03T02:24:21.993Z,1.70
2023-02-03T02:27:07.868Z,1.77
2023-02-03T02:29:44.593Z,1.88
2023-02-03T02:32:30.774Z,1.95
2023-02-03T02:35:10.674Z,1.60
2023-02-03T02:37:50.795Z,1.75
2023-02-03T02:40:28.148Z,1.75
2023-02-03T02:42:55.500Z,1.48
2023-02-03T02:45:28.946Z,1.42
2023-02-03T02:48:11.037Z,1.50
2023-02-03T02:50:40.805Z,1.42
2023-02-03T02:53:08.970Z,1.35
2023-02-03T02:55:38.803Z,1.77
2023-02-03T02:58:10.753Z,1.65
2023-02-03T03:00:41.014Z,1.63
2023-02-03T03:03:13.655Z,1.70
2023-02-03T03:05:42.280Z,1.50
2023-02-03T03:08:10.299Z,1.58
2023-02-03T03:10:38.673Z,1.65
2023-02-03T03:13:08.145Z,1.40
2023-02-03T03:15:37.033Z,1.50
2023-02-03T03:18:07.401Z,1.13
2023-02-03T03:20:37.407Z,1.55
2023-02-03T03:23:07.618Z,1.13
2023-02-03T03:25:41.625Z,2.35
2023-02-03T03:28:11.186Z,1.20
2023-02-03T03:30:40.053Z,1.52
2023-02-03T03:33:08.219Z,1.10
2023-02-03T03:35:58.766Z,1.10
2023-02-03T03:38:33.018Z,1.30
2023-02-03T03:41:03.927Z,1.30
2023-02-03T03:43:33.964Z,1.10
2023-02-03T03:46:04.215Z,1.25
2023-02-03T03:48:40.897Z,1.13
2023-02-03T03:51:23.564Z,1.48
2023-02-03T03:53:52.333Z,1.58
2023-02-03T03:56:29.502Z,1.42
2023-02-03T03:58:58.876Z,1.27
2023-02-03T04:03:58.029Z,1.17
2023-02-03T04:06:25.258Z,1.55
2023-02-03T04:08:52.516Z,1.30
2023-02-03T04:11:38.243Z,1.27
2023-02-03T04:14:05.642Z,1.38
2023-02-03T04:16:32.927Z,1.33
2023-02-03T04:19:00.505Z,1.30
2023-02-03T04:21:28.300Z,1.10
2023-02-03T04:23:56.984Z,1.20
2023-02-03T04:26:24.331Z,1.35
2023-02-03T04:28:51.741Z,1.15
2023-02-03T04:31:19.141Z,1.48
2023-02-03T04:33:46.462Z,1.60
2023-02-03T04:36:13.759Z,1.20
2023-02-03T04:38:40.960Z,1.10
2023-02-03T04:41:08.163Z,1.52
2023-02-03T04:43:35.459Z,1.30
2023-02-03T04:46:02.827Z,0.90
2023-02-03T04:48:30.215Z,1.23
2023-02-03T04:51:02.391Z,1.10
2023-02-03T04:53:30.116Z,1.15
2023-02-03T04:55:57.558Z,1.20
2023-02-03T04:58:26.275Z,1.33
2023-02-03T05:00:54.049Z,1.50
2023-02-03T05:03:23.498Z,1.17
2023-02-03T05:05:52.185Z,1.50
2023-02-03T05:08:19.498Z,1.40
2023-02-03T05:10:47.086Z,1.10
2023-02-03T05:13:14.384Z,1.00
2023-02-03T05:15:41.600Z,1.20
2023-02-03T05:18:08.901Z,1.23
2023-02-03T05:20:36.144Z,1.25
2023-02-03T05:23:03.530Z,1.25
2023-02-03T05:25:31.154Z,1.20
2023-02-03T05:27:58.455Z,1.35
2023-02-03T05:30:26.167Z,1.30
2023-02-03T05:32:53.664Z,1.83
2023-02-03T05:35:21.113Z,1.42
2023-02-03T05:37:49.026Z,1.30
2023-02-03T05:40:34.647Z,1.38
2023-02-03T05:43:01.917Z,1.30
2023-02-03T05:45:29.250Z,1.23
2023-02-03T05:47:56.515Z,1.27
2023-02-03T05:50:23.813Z,1.50
2023-02-03T05:52:51.019Z,1.40
2023-02-03T05:55:18.270Z,1.33
2023-02-03T05:57:45.481Z,1.27
2023-02-03T06:00:13.171Z,1.35
2023-02-03T06:02:40.409Z,1.85
2023-02-03T06:05:07.892Z,1.70
2023-02-03T06:07:37.721Z,1.70
2023-02-03T06:10:05.252Z,1.38
2023-02-03T06:12:32.463Z,1.25
2023-02-03T06:14:59.788Z,1.30
2023-02-03T06:17:28.854Z,1.30
2023-02-03T06:19:56.337Z,1.20
2023-02-03T06:22:23.736Z,1.45
2023-02-03T06:24:51.011Z,1.60
2023-02-03T06:27:18.410Z,1.58
2023-02-03T06:29:48.835Z,1.63
2023-02-03T06:32:17.456Z,1.52
2023-02-03T06:34:45.000Z,1.77
2023-02-03T06:37:12.281Z,1.75
2023-02-03T06:39:40.911Z,1.50
2023-02-03T06:42:08.441Z,3.13
2023-02-03T06:44:39.787Z,2.05
2023-02-03T06:47:09.437Z,2.10
2023-02-03T06:49:36.902Z,1.80
2023-02-03T06:52:04.235Z,1.63
2023-02-03T06:54:31.495Z,1.70
2023-02-03T06:56:58.769Z,1.48
2023-02-03T06:59:26.033Z,1.55
2023-02-03T07:01:53.312Z,1.65
2023-02-03T07:04:20.677Z,1.58
2023-02-03T07:06:47.920Z,2.13
2023-02-03T07:09:18.199Z,1.58
2023-02-03T07:11:45.450Z,1.30
2023-02-03T07:14:12.660Z,1.30
2023-02-03T07:16:39.971Z,1.55
2023-02-03T07:19:08.727Z,1.45
2023-02-03T07:21:35.930Z,1.40
2023-02-03T07:24:03.201Z,1.40
2023-02-03T07:26:30.719Z,1.40
2023-02-03T07:29:00.040Z,1.65
2023-02-03T07:31:27.416Z,1.70
2023-02-03T07:33:54.813Z,1.73
2023-02-03T07:36:22.015Z,1.40
2023-02-03T07:38:49.260Z,1.33
2023-02-03T07:41:18.157Z,1.35
2023-02-03T07:43:45.640Z,1.55
2023-02-03T07:46:13.011Z,1.40
2023-02-03T07:48:40.364Z,1.90
2023-02-03T07:51:07.793Z,1.45
2023-02-03T07:53:35.073Z,1.95
2023-02-03T07:56:04.987Z,2.42
2023-02-03T07:58:33.020Z,1.92
2023-02-03T08:01:00.648Z,2.15
2023-02-03T08:03:27.875Z,2.28
2023-02-03T08:05:57.250Z,2.00
2023-02-03T08:08:24.522Z,1.80
2023-02-03T08:10:51.818Z,1.77
2023-02-03T08:13:19.153Z,1.75
2023-02-03T08:15:46.404Z,1.80
2023-02-03T08:18:13.783Z,1.17
2023-02-03T08:20:41.053Z,2.00
2023-02-03T08:23:08.486Z,2.15
2023-02-03T08:25:35.787Z,1.92
2023-02-03T08:28:04.317Z,1.77
2023-02-03T08:30:31.813Z,1.60
2023-02-03T08:32:59.258Z,1.73
2023-02-03T08:35:26.559Z,1.60
2023-02-03T08:37:53.782Z,2.47
2023-02-03T08:40:21.063Z,1.60
2023-02-03T08:42:48.361Z,1.92
2023-02-03T08:45:15.645Z,1.98
2023-02-03T08:47:42.946Z,1.70
2023-02-03T08:50:10.609Z,1.50
2023-02-03T08:52:37.954Z,1.70
2023-02-03T08:55:05.421Z,1.70
2023-02-03T08:57:34.034Z,1.70
2023-02-03T09:00:01.468Z,1.83
2023-02-03T09:02:55.820Z,2.00
2023-02-03T09:05:23.155Z,2.20
2023-02-03T09:07:53.473Z,1.73
2023-02-03T09:10:20.801Z,1.83
2023-02-03T09:12:48.471Z,1.60
2023-02-03T09:15:15.885Z,1.75
2023-02-03T09:17:43.279Z,1.80
2023-02-03T09:20:38.494Z,1.67
2023-02-03T09:23:05.933Z,1.40
2023-02-03T09:25:34.491Z,1.70
2023-02-03T09:28:06.026Z,2.20
2023-02-03T09:30:33.353Z,1.70
2023-02-03T09:33:00.861Z,1.73
2023-02-03T09:35:30.127Z,1.50
2023-02-03T09:40:59.992Z,1.77
2023-02-03T09:43:49.070Z,1.80
2023-02-03T09:46:20.726Z,1.75
2023-02-03T09:52:24.263Z,1.60
2023-02-03T09:55:06.707Z,1.77
2023-02-03T09:58:13.036Z,1.90
2023-02-03T10:00:46.041Z,1.75
2023-02-03T10:03:22.452Z,1.42
2023-02-03T10:06:02.905Z,1.50
2023-02-03T10:08:47.400Z,1.52
2023-02-03T10:11:17.767Z,1.88
2023-02-03T10:13:49.239Z,1.58
2023-02-03T10:16:35.620Z,1.38
2023-02-03T10:22:33.158Z,1.73
2023-02-03T10:25:25.140Z,1.77
2023-02-03T10:27:58.647Z,1.80
2023-02-03T10:30:28.187Z,1.50
2023-02-03T10:32:58.367Z,1.67
2023-02-03T10:35:49.399Z,1.55
2023-02-03T10:38:36.806Z,1.55
2023-02-03T10:41:04.607Z,1.58
2023-02-03T10:43:48.146Z,1.42
2023-02-03T10:46:20.514Z,1.30
2023-02-03T10:48:49.280Z,1.40
2023-02-03T10:51:21.309Z,1.55
2023-02-03T10:53:48.873Z,1.58
2023-02-03T10:56:20.459Z,1.40
2023-02-03T10:58:49.592Z,1.50
2023-02-03T11:01:18.459Z,1.90
2023-02-03T11:04:31.859Z,1.70
2023-02-03T11:07:09.587Z,1.75
2023-02-03T11:09:52.525Z,2.10
2023-02-03T11:15:26.227Z,1.70
2023-02-03T11:17:53.664Z,1.73
2023-02-03T11:20:22.346Z,1.63
2023-02-03T11:22:49.677Z,1.60
2023-02-03T11:25:21.987Z,2.17
2023-02-03T11:27:49.636Z,1.50
2023-02-03T11:30:17.041Z,1.83
2023-02-03T11:32:45.337Z,1.70
2023-02-03T11:35:23.813Z,1.73
2023-02-03T11:37:52.235Z,1.90
2023-02-03T11:40:24.644Z,1.70
2023-02-03T11:42:51.968Z,1.70
2023-02-03T11:45:19.174Z,2.22
2023-02-03T11:47:49.432Z,1.60
2023-02-03T11:50:42.793Z,1.60
2023-02-03T11:53:56.990Z,1.80
2023-02-03T11:56:32.520Z,1.65
2023-02-03T11:59:05.233Z,1.90
2023-02-03T12:01:38.340Z,2.30
2023-02-03T12:04:14.810Z,1.60
2023-02-03T12:07:00.617Z,1.70
2023-02-03T12:09:40.329Z,1.85
2023-02-03T12:12:18.149Z,2.10
2023-02-03T12:15:04.073Z,1.70
2023-02-03T12:17:31.280Z,2.10
2023-02-03T12:20:01.595Z,2.13
2023-02-03T12:22:34.333Z,1.55
2023-02-03T12:25:24.274Z,2.08
2023-02-03T12:28:05.033Z,1.73
2023-02-03T12:30:38.459Z,1.60
2023-02-03T12:33:18.846Z,2.30
2023-02-03T12:35:50.447Z,1.73
2023-02-03T12:38:38.034Z,1.90
2023-02-03T12:41:11.770Z,2.13
2023-02-03T12:43:50.708Z,1.92
2023-02-03T12:46:24.352Z,2.20
2023-02-03T12:48:58.635Z,1.92
2023-02-03T12:51:38.165Z,1.98
2023-02-03T12:54:24.376Z,2.10
2023-02-03T12:56:54.430Z,1.90
2023-02-03T12:59:24.249Z,1.85
2023-02-03T13:02:00.235Z,2.40
2023-02-03T13:04:36.734Z,2.60
2023-02-03T13:07:07.064Z,2.20
2023-02-03T13:09:40.430Z,2.42
2023-02-03T13:12:12.007Z,2.45
2023-02-03T13:14:46.453Z,2.63
2023-02-03T13:17:23.017Z,2.47
2023-02-03T13:19:55.701Z,2.25
2023-02-03T13:22:23.959Z,2.08
2023-02-03T13:25:01.575Z,2.22
2023-02-03T13:27:38.770Z,2.40
2023-02-03T13:30:16.157Z,2.30
2023-02-03T13:32:43.345Z,2.90
2023-02-03T13:35:32.245Z,2.08
2023-02-03T13:38:10.147Z,2.88
2023-02-03T13:40:37.383Z,2.35
2023-02-03T13:43:07.268Z,3.75
2023-02-03T13:45:38.342Z,2.70
2023-02-03T13:48:15.906Z,2.45
2023-02-03T13:50:43.847Z,2.55
2023-02-03T13:53:23.157Z,2.67
2023-02-03T13:56:01.090Z,3.15
2023-02-03T13:58:31.493Z,2.40
2023-02-03T14:01:19.156Z,2.40
2023-02-03T14:03:47.309Z,2.97
2023-02-03T14:06:33.424Z,2.30
2023-02-03T14:09:00.691Z,2.47
2023-02-03T14:11:34.029Z,2.42
2023-02-03T14:14:10.127Z,2.83
2023-02-03T14:16:38.473Z,3.05
2023-02-03T14:19:06.322Z,3.35
2023-02-03T14:21:39.524Z,2.88
2023-02-03T14:24:14.199Z,2.58
2023-02-03T14:26:46.868Z,2.90
2023-02-03T14:29:28.107Z,2.65
2023-02-03T14:32:02.788Z,2.78
2023-02-03T14:34:31.745Z,3.22
2023-02-03T14:37:10.020Z,2.72
2023-02-03T14:39:43.257Z,2.72
2023-02-03T14:42:29.572Z,3.00
2023-02-03T14:44:59.950Z,3.85
2023-02-03T14:47:27.125Z,3.38
2023-02-03T14:50:05.579Z,2.58
2023-02-03T14:52:42.060Z,2.75
2023-02-03T14:55:12.425Z,3.67
2023-02-03T14:57:51.816Z,2.72
2023-02-03T15:00:22.987Z,2.60
2023-02-03T15:03:23.071Z,2.45
2023-02-03T15:05:51.581Z,2.35
2023-02-03T15:08:40.053Z,2.83
2023-02-03T15:11:19.370Z,2.65
2023-02-03T15:13:46.690Z,2.03
2023-02-03T15:16:17.215Z,2.50
2023-02-03T15:18:44.540Z,2.75
2023-02-03T15:21:18.921Z,2.72
2023-02-03T15:23:51.036Z,2.67
2023-02-03T15:26:41.246Z,2.42
2023-02-03T15:29:19.340Z,3.03
2023-02-03T15:31:50.330Z,2.83
2023-02-03T15:34:26.715Z,2.88
2023-02-03T15:36:59.531Z,2.55
2023-02-03T15:39:42.983Z,2.70
2023-02-03T15:42:16.326Z,2.38
2023-02-03T15:44:47.884Z,2.30
2023-02-03T15:47:29.588Z,2.72
2023-02-03T15:50:00.783Z,2.88
2023-02-03T15:52:28.942Z,2.50
2023-02-03T15:55:01.906Z,3.00
2023-02-03T15:57:34.533Z,2.58
2023-02-03T16:00:04.232Z,2.58
2023-02-03T16:02:47.079Z,2.30
2023-02-03T16:05:30.882Z,2.22
2023-02-03T16:07:58.487Z,2.90
2023-02-03T16:10:29.684Z,2.10
2023-02-03T16:13:15.932Z,2.58
2023-02-03T16:15:43.360Z,2.55
2023-02-03T16:18:17.225Z,2.30
2023-02-03T16:20:52.052Z,2.10
2023-02-03T16:23:24.204Z,2.30
2023-02-03T16:26:12.138Z,2.10
2023-02-03T16:28:59.026Z,2.45
2023-02-03T16:31:45.061Z,2.92
2023-02-03T16:34:35.316Z,2.80
2023-02-03T16:37:21.841Z,2.20
2023-02-03T16:40:09.928Z,2.72
2023-02-03T16:42:57.542Z,3.20
2023-02-03T16:45:43.461Z,2.58
2023-02-03T16:48:30.360Z,2.67
2023-02-03T16:50:59.605Z,2.88
2023-02-03T16:53:30.192Z,2.38
2023-02-03T16:55:59.303Z,2.50
2023-02-03T16:58:26.647Z,2.92
2023-02-03T17:00:54.297Z,2.28
2023-02-03T17:03:27.390Z,2.45
2023-02-03T17:05:55.184Z,2.78
2023-02-03T17:08:23.203Z,2.50
2023-02-03T17:10:50.488Z,2.33
2023-02-03T17:13:18.650Z,2.47
2023-02-03T17:15:47.557Z,2.88
2023-02-03T17:18:15.724Z,2.88
2023-02-03T17:20:43.794Z,2.88
2023-02-03T17:23:11.245Z,2.35
2023-02-03T17:25:38.876Z,2.65
2023-02-03T17:28:07.111Z,2.75
2023-02-03T17:30:35.346Z,2.95
2023-02-03T17:33:03.135Z,2.75
2023-02-03T17:35:30.760Z,3.13
2023-02-03T17:37:58.509Z,2.72
2023-02-03T17:54:15.120Z,3.20
2023-02-03T17:56:42.410Z,2.80
2023-02-03T17:59:10.304Z,2.38
2023-02-03T18:01:38.433Z,2.78
2023-02-03T18:04:06.043Z,3.15
2023-02-03T18:06:36.978Z,2.97
2023-02-03T18:09:05.241Z,3.10
2023-02-03T18:11:33.987Z,3.47
2023-02-03T18:14:01.380Z,3.78
2023-02-03T18:16:32.345Z,3.60
2023-02-03T18:19:00.986Z,3.10
2023-02-03T18:21:28.374Z,3.25
2023-02-03T18:23:59.828Z,2.97
2023-02-03T18:26:28.809Z,3.50
2023-02-03T18:28:56.434Z,2.45
2023-02-03T18:31:25.254Z,3.78
2023-02-03T18:33:52.797Z,3.15
2023-02-03T18:36:20.499Z,3.63
2023-02-03T18:38:48.489Z,2.60
2023-02-03T18:41:19.268Z,3.88
2023-02-03T18:43:49.017Z,2.78
2023-02-03T18:46:30.183Z,3.53
2023-02-03T18:48:57.566Z,3.67
2023-02-03T18:51:25.562Z,2.83
2023-02-03T18:53:56.361Z,2.75
2023-02-03T18:56:25.208Z,3.00
2023-02-03T18:58:53.766Z,3.13
2023-02-03T19:01:24.866Z,3.00
2023-02-03T19:03:52.387Z,2.60
2023-02-03T19:06:19.712Z,2.67
2023-02-03T19:08:47.147Z,2.88
2023-02-03T19:11:14.836Z,2.78
2023-02-03T19:13:42.287Z,2.90
2023-02-03T19:16:10.306Z,2.53
2023-02-03T19:18:37.678Z,2.28
2023-02-03T19:21:05.037Z,2.88
2023-02-03T19:23:32.317Z,3.35
2023-02-03T19:25:59.547Z,3.30
2023-02-03T19:28:30.826Z,2.70
2023-02-03T19:31:09.085Z,2.15
2023-02-03T19:33:36.907Z,2.80
2023-02-03T19:36:07.788Z,2.80
2023-02-03T19:38:35.415Z,2.80
2023-02-03T19:41:02.762Z,2.72
2023-02-03T19:43:33.234Z,2.70
2023-02-03T19:46:00.637Z,2.63
2023-02-03T19:48:27.916Z,2.92
2023-02-03T19:50:55.165Z,2.95
2023-02-03T19:53:24.184Z,2.50
2023-02-03T19:55:51.458Z,2.65
2023-02-03T19:58:18.778Z,2.70
2023-02-03T20:00:46.092Z,2.28
2023-02-03T20:03:13.350Z,2.40
2023-02-03T20:05:40.580Z,3.30
2023-02-03T20:08:07.841Z,2.92
2023-02-03T20:10:35.080Z,2.72
2023-02-03T20:13:02.338Z,2.80
2023-02-03T20:15:29.567Z,3.42
2023-02-03T20:17:56.851Z,2.78
2023-02-03T20:20:24.250Z,2.95
2023-02-03T20:22:51.519Z,3.40
2023-02-03T20:25:19.257Z,3.15
2023-02-03T20:27:46.668Z,2.60
2023-02-03T20:30:14.213Z,2.95
2023-02-03T20:32:41.488Z,2.80
2023-02-03T20:35:09.067Z,2.80
2023-02-03T20:37:36.485Z,2.80
2023-02-03T20:40:07.009Z,3.08
2023-02-03T20:42:34.587Z,2.97
2023-02-03T20:45:01.879Z,2.90
2023-02-03T20:47:29.193Z,2.58
2023-02-03T20:49:56.402Z,3.10
2023-02-03T20:52:23.611Z,2.80
2023-02-03T20:54:50.877Z,2.92
2023-02-03T20:57:19.640Z,2.60
2023-02-03T20:59:47.183Z,2.95
2023-02-03T21:02:22.945Z,3.22
2023-02-03T21:07:30.518Z,2.50
2023-02-03T21:09:58.932Z,2.55
2023-02-03T21:12:28.150Z,3.03
2023-02-03T21:14:55.438Z,2.63
2023-02-03T21:17:26.589Z,2.90
2023-02-03T21:19:54.653Z,3.03
2023-02-03T21:22:23.688Z,2.90
2023-02-03T21:24:52.205Z,3.13
2023-02-03T21:27:23.165Z,3.17
2023-02-03T21:29:51.850Z,3.15
2023-02-03T21:32:19.383Z,3.05
2023-02-03T21:34:47.327Z,2.80
2023-02-03T21:37:20.678Z,2.70
2023-02-03T21:39:48.505Z,3.17
2023-02-03T21:46:54.472Z,3.10
2023-02-03T21:49:22.305Z,3.30
2023-02-03T21:51:49.589Z,2.47
2023-02-03T21:54:22.911Z,2.92
2023-02-03T21:56:54.320Z,2.85
2023-02-03T21:59:28.385Z,2.53
2023-02-03T22:01:58.396Z,2.60
2023-02-03T22:04:29.235Z,2.97
2023-02-03T22:06:56.820Z,2.80
2023-02-03T22:09:25.404Z,2.95
2023-02-03T22:11:53.107Z,2.40
2023-02-03T22:14:21.114Z,3.38
2023-02-03T22:16:48.509Z,2.65
2023-02-03T22:19:19.016Z,3.20
2023-02-03T22:21:48.468Z,2.38
2023-02-03T22:26:42.803Z,2.50
2023-02-03T22:29:10.030Z,3.00
2023-02-03T22:31:37.391Z,2.55
2023-02-03T22:34:04.699Z,2.38
2023-02-03T22:36:31.951Z,2.70
2023-02-03T22:38:59.248Z,2.38
2023-02-03T22:41:26.479Z,2.13
2023-02-03T22:43:53.722Z,2.50
2023-02-03T22:46:21.081Z,2.47
2023-02-03T22:48:48.324Z,2.38
2023-02-03T22:51:15.568Z,2.15
2023-02-03T22:53:42.825Z,2.15
2023-02-03T22:56:10.081Z,1.90
2023-02-03T22:58:37.300Z,2.22
2023-02-03T23:01:04.705Z,2.80
2023-02-03T23:03:32.744Z,2.10
2023-02-03T23:06:00.327Z,2.08
2023-02-03T23:08:27.668Z,2.42
2023-02-03T23:10:55.845Z,2.00
2023-02-03T23:13:23.505Z,1.98
2023-02-03T23:15:50.754Z,2.17
2023-02-03T23:18:18.022Z,2.55
2023-02-03T23:20:45.301Z,3.05
2023-02-03T23:23:14.133Z,2.10
2023-02-03T23:25:41.333Z,2.30
2023-02-03T23:28:08.639Z,2.00
2023-02-03T23:30:35.972Z,2.25
2023-02-03T23:33:03.237Z,2.05
2023-02-03T23:35:45.446Z,2.17
2023-02-03T23:38:13.119Z,2.80
2023-02-03T23:40:40.336Z,2.05
2023-02-03T23:43:07.784Z,2.55
2023-02-03T23:45:34.981Z,2.30
2023-02-03T23:48:02.298Z,2.13
2023-02-03T23:50:29.845Z,1.88
2023-02-03T23:52:57.237Z,2.38
2023-02-03T23:55:24.498Z,1.98
2023-02-03T23:57:51.867Z,2.72
